^^
Saratoga-Weather Station Historical Data
Daily Summary for January 25, 2020 Units:  English    Metric   Both
Daily Weekly Monthly Yearly Custom
  High: Low: Average:
Temperature: 82.2 °F 52.3 °F 66.7 °F
Dew Point: 59.2 °F 49.8 °F 53.2 °F
Humidity: 92% 35% 66%
Wind Speed: 16.1mph 0mph 1.3mph
Wind Gust: 16mph - -
Wind- - South
Pressure: 30 in 29.7 in -
Precipitation: 0 in    
Historical Graphs
 
 
Tabular Data for January 25, 2020
Time Temperature Dew Point Pressure Wind Wind Speed Wind Gust Humidity Rainfall Rate (Hourly) solar
00:00 61 °F 52 °F 30 in Calm     72% 0 in 0 W/m2
00:05 60.6 °F 52 °F 30 in Calm     73% 0 in 0 W/m2
00:10 60.3 °F 51.6 °F 30 in Calm     73% 0 in 0 W/m2
00:15 60.1 °F 51.8 °F 30 in Calm     74% 0 in 0 W/m2
00:20 59.7 °F 51.4 °F 30 in Calm     74% 0 in 0 W/m2
00:25 59.5 °F 51.6 °F 30 in Calm     75% 0 in 0 W/m2
00:30 59.4 °F 51.4 °F 30 in Calm     75% 0 in 0 W/m2
00:35 59.2 °F 51.6 °F 30 in Calm     76% 0 in 0 W/m2
00:40 58.8 °F 51.3 °F 30 in Calm     76% 0 in 0 W/m2
00:45 58.6 °F 51.4 °F 30 in West 0.9 mph 1 mph 77% 0 in 0 W/m2
00:50 58.6 °F 51.8 °F 30 in Calm     78% 0 in 0 W/m2
00:55 58.5 °F 51.6 °F 30 in Calm   1 mph 78% 0 in 0 W/m2
01:00 58.3 °F 51.4 °F 30 in Calm     78% 0 in 0 W/m2
01:06 57.9 °F 51.1 °F 30 in Calm     78% 0 in 0 W/m2
01:11 57.7 °F 51.3 °F 30 in Calm     79% 0 in 0 W/m2
01:16 57.7 °F 51.6 °F 30 in Calm     80% 0 in 0 W/m2
01:21 57.6 °F 51.4 °F 30 in Calm     80% 0 in 0 W/m2
01:26 57.6 °F 51.4 °F 30 in Calm     80% 0 in 0 W/m2
01:31 57.4 °F 51.3 °F 30 in Calm     80% 0 in 0 W/m2
01:36 57 °F 51.3 °F 30 in Calm     81% 0 in 0 W/m2
01:41 57 °F 51.3 °F 30 in Calm     81% 0 in 0 W/m2
01:46 57 °F 51.3 °F 30 in Calm     81% 0 in 0 W/m2
01:51 56.8 °F 51.4 °F 30 in Calm     82% 0 in 0 W/m2
01:56 56.8 °F 51.1 °F 30 in Calm     81% 0 in 0 W/m2
02:01 56.7 °F 51.3 °F 30 in Calm     82% 0 in 0 W/m2
02:06 56.5 °F 51.1 °F 30 in Calm   1 mph 82% 0 in 0 W/m2
02:11 56.5 °F 51.1 °F 30 in Calm     82% 0 in 0 W/m2
02:16 56.1 °F 51.1 °F 30 in Calm     83% 0 in 0 W/m2
02:21 55.9 °F 50.9 °F 30 in Calm     83% 0 in 0 W/m2
02:26 55.9 °F 51.3 °F 30 in Calm     84% 0 in 0 W/m2
02:31 55.8 °F 51.1 °F 30 in Calm     84% 0 in 0 W/m2
02:36 55.8 °F 51.1 °F 30 in Calm     84% 0 in 0 W/m2
02:41 55.6 °F 50.9 °F 30 in Calm   1 mph 84% 0 in 0 W/m2
02:46 55.6 °F 51.1 °F 30 in Calm   1 mph 85% 0 in 0 W/m2
02:51 55.2 °F 50.7 °F 30 in Calm     85% 0 in 0 W/m2
02:56 55 °F 50.5 °F 30 in Calm     85% 0 in 0 W/m2
03:01 55 °F 50.9 °F 30 in Calm     86% 0 in 0 W/m2
03:06 55 °F 50.9 °F 30 in Calm     86% 0 in 0 W/m2
03:11 54.9 °F 51.1 °F 30 in Calm     87% 0 in 0 W/m2
03:16 54.9 °F 51.1 °F 30 in Calm     87% 0 in 0 W/m2
03:21 54.7 °F 50.9 °F 30 in Calm     87% 0 in 0 W/m2
03:26 54.7 °F 50.9 °F 30 in Calm     87% 0 in 0 W/m2
03:31 54.5 °F 51.1 °F 30 in Calm     88% 0 in 0 W/m2
03:36 54.5 °F 51.1 °F 30 in Calm     88% 0 in 0 W/m2
03:41 54.7 °F 51.3 °F 30 in Calm   1 mph 88% 0 in 0 W/m2
03:46 54.7 °F 51.3 °F 30 in Calm     88% 0 in 0 W/m2
03:51 54.5 °F 51.1 °F 30 in Calm   1 mph 88% 0 in 0 W/m2
03:56 54.3 °F 50.9 °F 30 in Calm     88% 0 in 0 W/m2
04:01 54.3 °F 50.9 °F 30 in Calm     88% 0 in 0 W/m2
04:06 54.3 °F 50.9 °F 30 in Calm     88% 0 in 0 W/m2
04:11 54.3 °F 50.9 °F 30 in Calm     88% 0 in 0 W/m2
04:16 54.3 °F 50.9 °F 30 in Calm     88% 0 in 0 W/m2
04:21 54.1 °F 50.7 °F 30 in Calm     88% 0 in 0 W/m2
04:26 54.1 °F 50.7 °F 30 in Calm     88% 0 in 0 W/m2
04:31 54 °F 50.5 °F 29.9 in Calm     88% 0 in 0 W/m2
04:36 53.8 °F 50.4 °F 29.9 in Calm     88% 0 in 0 W/m2
04:41 53.8 °F 50.5 °F 29.9 in Calm     89% 0 in 0 W/m2
04:46 53.6 °F 50.4 °F 29.9 in Calm     89% 0 in 0 W/m2
04:51 53.4 °F 50.2 °F 29.9 in Calm     89% 0 in 0 W/m2
04:56 53.2 °F 50 °F 29.9 in Calm     89% 0 in 0 W/m2
05:01 53.2 °F 50.4 °F 29.9 in Calm     90% 0 in 0 W/m2
05:06 53.2 °F 50.4 °F 29.9 in Calm     90% 0 in 0 W/m2
05:11 53.1 °F 50.2 °F 29.9 in Calm     90% 0 in 0 W/m2
05:16 53.1 °F 50.2 °F 29.9 in Calm     90% 0 in 0 W/m2
05:21 52.9 °F 50 °F 29.9 in Calm     90% 0 in 0 W/m2
05:26 52.9 °F 50.4 °F 29.9 in Calm     91% 0 in 0 W/m2
05:31 52.9 °F 50.4 °F 29.9 in Calm     91% 0 in 0 W/m2
05:36 52.7 °F 50.2 °F 29.9 in Calm     91% 0 in 0 W/m2
05:41 52.5 °F 50 °F 29.9 in Calm     91% 0 in 0 W/m2
05:46 52.5 °F 50 °F 29.9 in Calm     91% 0 in 0 W/m2
05:52 52.3 °F 49.8 °F 29.9 in Calm     91% 0 in 0 W/m2
05:57 52.3 °F 49.8 °F 29.9 in Calm     91% 0 in 0 W/m2
06:02 52.3 °F 49.8 °F 29.9 in Calm     91% 0 in 0 W/m2
06:07 52.3 °F 50 °F 29.9 in Calm     92% 0 in 0 W/m2
06:12 52.3 °F 50 °F 29.9 in Calm     92% 0 in 0 W/m2
06:17 52.3 °F 50 °F 29.9 in Calm     92% 0 in 0 W/m2
06:22 52.3 °F 50 °F 29.9 in Calm     92% 0 in 0 W/m2
06:27 52.5 °F 50.2 °F 29.9 in Calm     92% 0 in 0 W/m2
06:32 52.5 °F 50.2 °F 29.9 in Calm     92% 0 in 5 W/m2
06:37 52.7 °F 50.4 °F 29.9 in Calm     92% 0 in 9 W/m2
06:42 52.9 °F 50.5 °F 29.9 in Calm     92% 0 in 9 W/m2
06:47 52.9 °F 50.5 °F 29.9 in Calm     92% 0 in 7 W/m2
06:52 53.1 °F 50.7 °F 29.9 in Calm     92% 0 in 9 W/m2
06:57 53.2 °F 50.9 °F 29.9 in Calm   1 mph 92% 0 in 11 W/m2
07:02 53.4 °F 51.1 °F 29.9 in Calm     92% 0 in 12 W/m2
07:07 53.6 °F 51.3 °F 29.9 in Calm     92% 0 in 11 W/m2
07:12 53.8 °F 51.3 °F 29.9 in Calm     91% 0 in 12 W/m2
07:17 54 °F 51.4 °F 29.9 in Calm     91% 0 in 14 W/m2
07:22 54 °F 51.4 °F 29.9 in Calm     91% 0 in 18 W/m2
07:27 54.1 °F 51.6 °F 29.9 in Calm     91% 0 in 21 W/m2
07:32 54.1 °F 51.3 °F 29.9 in Calm     90% 0 in 21 W/m2
07:37 54.3 °F 51.4 °F 29.9 in Calm   1 mph 90% 0 in 23 W/m2
07:42 54.3 °F 51.4 °F 29.9 in Calm     90% 0 in 28 W/m2
07:47 54.7 °F 51.8 °F 29.9 in Calm     90% 0 in 33 W/m2
07:52 54.9 °F 51.6 °F 29.9 in Calm   1 mph 89% 0 in 33 W/m2
07:57 55 °F 51.8 °F 29.9 in West 0.9 mph 2 mph 89% 0 in 37 W/m2
08:02 55 °F 51.8 °F 29.9 in Calm   1 mph 89% 0 in 39 W/m2
08:07 55.2 °F 52 °F 29.9 in Calm     89% 0 in 40 W/m2
08:12 55.2 °F 51.8 °F 29.9 in Calm   1 mph 88% 0 in 42 W/m2
08:17 55.6 °F 52.2 °F 29.9 in Calm     88% 0 in 40 W/m2
08:22 55.6 °F 52.2 °F 29.9 in NE 0.9 mph 3 mph 88% 0 in 42 W/m2
08:27 55.8 °F 52.3 °F 29.9 in Calm     88% 0 in 60 W/m2
08:32 55.9 °F 52.5 °F 29.9 in Calm   3 mph 88% 0 in 70 W/m2
08:37 55.9 °F 52.2 °F 29.9 in Calm   1 mph 87% 0 in 65 W/m2
08:42 55.9 °F 52.2 °F 29.9 in Calm   1 mph 87% 0 in 62 W/m2
08:47 56.1 °F 52.3 °F 29.9 in NE 0.9 mph 1 mph 87% 0 in 60 W/m2
08:52 56.1 °F 52.3 °F 29.9 in Calm     87% 0 in 58 W/m2
08:57 56.3 °F 52.5 °F 29.9 in Calm   1 mph 87% 0 in 54 W/m2
09:02 56.3 °F 52.5 °F 29.9 in Calm     87% 0 in 53 W/m2
09:07 56.5 °F 52.3 °F 29.9 in Calm     86% 0 in 54 W/m2
09:12 56.7 °F 52.5 °F 29.9 in Calm   1 mph 86% 0 in 54 W/m2
09:17 56.7 °F 52.5 °F 29.9 in Calm     86% 0 in 58 W/m2
09:22 56.8 °F 52.7 °F 29.9 in Calm     86% 0 in 60 W/m2
09:27 57 °F 52.9 °F 29.9 in Calm     86% 0 in 60 W/m2
09:32 57 °F 52.9 °F 29.9 in Calm     86% 0 in 67 W/m2
09:37 57.2 °F 53.1 °F 29.9 in Calm     86% 0 in 74 W/m2
09:42 57.4 °F 53.6 °F 29.9 in Calm     87% 0 in 83 W/m2
09:47 57.6 °F 53.8 °F 29.9 in Calm     87% 0 in 100 W/m2
09:52 57.7 °F 54 °F 29.9 in Calm     87% 0 in 114 W/m2
09:57 57.9 °F 54.1 °F 29.9 in East 0.9 mph 2 mph 87% 0 in 116 W/m2
10:02 57.9 °F 54.1 °F 29.9 in East 0.9 mph 2 mph 87% 0 in 155 W/m2
10:07 58.1 °F 54.3 °F 29.9 in Calm   1 mph 87% 0 in 178 W/m2
10:12 58.5 °F 54.7 °F 29.9 in Calm   2 mph 87% 0 in 195 W/m2
10:17 58.6 °F 54.5 °F 29.9 in Calm   1 mph 86% 0 in 172 W/m2
10:22 58.8 °F 54.3 °F 29.9 in Calm   2 mph 85% 0 in 165 W/m2
10:27 59 °F 54.1 °F 29.9 in Calm   1 mph 84% 0 in 190 W/m2
10:32 59.2 °F 54.3 °F 29.9 in East 0.9 mph 3 mph 84% 0 in 125 W/m2
10:37 59.2 °F 54 °F 29.9 in ESE 2 mph 3 mph 83% 0 in 230 W/m2
10:42 59.2 °F 54.3 °F 29.9 in SE 2 mph 3 mph 84% 0 in 206 W/m2
10:47 59.4 °F 54.5 °F 29.9 in ESE 2.9 mph 3 mph 84% 0 in 221 W/m2
10:52 59.5 °F 54.7 °F 29.9 in ENE 2 mph 2 mph 84% 0 in 236 W/m2
10:57 59.9 °F 54.7 °F 29.9 in NE 2 mph 3 mph 83% 0 in 301 W/m2
11:02 60.4 °F 55.2 °F 29.9 in ESE 2 mph 2 mph 83% 0 in 318 W/m2
11:07 60.8 °F 55.2 °F 29.9 in NE 4.9 mph 5 mph 82% 0 in 267 W/m2
11:12 61 °F 55 °F 29.9 in ENE 2 mph 3 mph 81% 0 in 248 W/m2
11:17 61.3 °F 55.4 °F 29.9 in ESE 2 mph 4 mph 81% 0 in 271 W/m2
11:22 61.7 °F 55.8 °F 29.9 in Calm   1 mph 81% 0 in 302 W/m2
11:27 62.2 °F 55.9 °F 29.9 in NE 0.9 mph 2 mph 80% 0 in 318 W/m2
11:32 62.8 °F 56.1 °F 29.9 in Calm   1 mph 79% 0 in 332 W/m2
11:37 63.1 °F 55.4 °F 29.9 in NE 0.9 mph 2 mph 76% 0 in 288 W/m2
11:42 63.7 °F 55.6 °F 29.9 in NNE 0.9 mph 2 mph 75% 0 in 295 W/m2
11:47 64.2 °F 56.5 °F 29.9 in Calm     76% 0 in 279 W/m2
11:52 64.9 °F 56.5 °F 29.9 in NE 0.9 mph 4 mph 74% 0 in 279 W/m2
11:57 65.3 °F 56.5 °F 29.9 in NNE 2 mph 3 mph 73% 0 in 272 W/m2
12:02 65.7 °F 56.8 °F 29.9 in Calm   1 mph 73% 0 in 244 W/m2
12:07 66 °F 57.2 °F 29.9 in Calm   2 mph 73% 0 in 315 W/m2
12:12 66.6 °F 57.2 °F 29.9 in ENE 2 mph 6 mph 72% 0 in 374 W/m2
12:17 66.9 °F 56.5 °F 29.9 in ENE 2 mph 3 mph 69% 0 in 387 W/m2
12:22 67.1 °F 56.7 °F 29.9 in North 2 mph 2 mph 69% 0 in 258 W/m2
12:27 67.5 °F 57 °F 29.9 in East 2 mph 3 mph 69% 0 in 253 W/m2
12:32 67.6 °F 56.7 °F 29.9 in ENE 0.9 mph 3 mph 68% 0 in 214 W/m2
12:37 67.8 °F 56.8 °F 29.9 in East 0.9 mph 2 mph 68% 0 in 216 W/m2
12:43 68 °F 57 °F 29.9 in East 2 mph 3 mph 68% 0 in 234 W/m2
12:48 68.4 °F 56.5 °F 29.9 in ENE 2.9 mph 6 mph 66% 0 in 271 W/m2
12:53 68.5 °F 56.7 °F 29.9 in SE 2 mph 4 mph 66% 0 in 251 W/m2
12:58 68.9 °F 57.6 °F 29.9 in West 2 mph 3 mph 67% 0 in 257 W/m2
13:03 69.3 °F 57 °F 29.9 in SW 0.9 mph 4 mph 65% 0 in 250 W/m2
13:08 69.4 °F 56.3 °F 29.9 in North 0.9 mph 2 mph 63% 0 in 239 W/m2
13:13 69.4 °F 55.4 °F 29.9 in Calm   3 mph 61% 0 in 264 W/m2
13:18 70 °F 55.9 °F 29.9 in Calm   1 mph 61% 0 in 241 W/m2
13:23 70.2 °F 55.2 °F 29.9 in NW 2 mph 7 mph 59% 0 in 248 W/m2
13:28 70.3 °F 55.4 °F 29.8 in NE 0.9 mph 4 mph 59% 0 in 364 W/m2
13:33 70.9 °F 54.9 °F 29.8 in North 2 mph 7 mph 57% 0 in 378 W/m2
13:38 71.2 °F 56.1 °F 29.8 in ENE 0.9 mph 5 mph 59% 0 in 497 W/m2
13:43 72.1 °F 56.5 °F 29.8 in NE 0.9 mph 3 mph 58% 0 in 404 W/m2
13:48 72.9 °F 56.7 °F 29.8 in SW 0.9 mph 3 mph 57% 0 in 346 W/m2
13:53 73 °F 56.8 °F 29.8 in ENE 2.9 mph 3 mph 57% 0 in 285 W/m2
13:58 73 °F 57.4 °F 29.8 in NW 2 mph 3 mph 58% 0 in 299 W/m2
14:03 73 °F 57.4 °F 29.8 in East 2 mph 4 mph 58% 0 in 295 W/m2
14:08 73 °F 56.8 °F 29.8 in East 0.9 mph 3 mph 57% 0 in 304 W/m2
14:13 73 °F 56.8 °F 29.8 in North 0.9 mph 4 mph 57% 0 in 443 W/m2
14:18 73.4 °F 57.2 °F 29.8 in ENE 0.9 mph 6 mph 57% 0 in 403 W/m2
14:23 73.6 °F 57.4 °F 29.8 in NE 2 mph 8 mph 57% 0 in 274 W/m2
14:28 73.2 °F 57 °F 29.8 in NNE 0.9 mph 2 mph 57% 0 in 271 W/m2
14:33 73.6 °F 57.4 °F 29.8 in East 6.9 mph 9 mph 57% 0 in 462 W/m2
14:38 74.3 °F 57.6 °F 29.8 in East 6 mph 9 mph 56% 0 in 1030 W/m2
14:44 75 °F 57.2 °F 29.8 in NW 0.9 mph 6 mph 54% 0 in 1069 W/m2
14:49 75.9 °F 57.6 °F 29.8 in NE 4.9 mph 8 mph 53% 0 in 522 W/m2
14:54 75.9 °F 58.1 °F 29.8 in NE 4 mph 6 mph 54% 0 in 889 W/m2
14:59 76.3 °F 57.9 °F 29.8 in NE 2 mph 7 mph 53% 0 in 359 W/m2
15:04 76.5 °F 58.1 °F 29.8 in SE 2.9 mph 5 mph 53% 0 in 325 W/m2
15:09 76.3 °F 57.4 °F 29.8 in East 2.9 mph 4 mph 52% 0 in 237 W/m2
15:14 76.5 °F 56.5 °F 29.8 in SE 2 mph 5 mph 50% 0 in 977 W/m2
15:19 77.2 °F 57 °F 29.8 in SW 2.9 mph 5 mph 50% 0 in 846 W/m2
15:24 78.1 °F 55.6 °F 29.8 in NE 4 mph 6 mph 46% 0 in 439 W/m2
15:29 78.1 °F 55 °F 29.8 in Calm   5 mph 45% 0 in 315 W/m2
15:34 78.3 °F 54 °F 29.8 in NE 2.9 mph 3 mph 43% 0 in 334 W/m2
15:39 78.4 °F 53.4 °F 29.8 in WNW 4 mph 11 mph 42% 0 in 355 W/m2
15:44 78.4 °F 53.4 °F 29.8 in ENE 2 mph 2 mph 42% 0 in 232 W/m2
15:49 78.4 °F 53.4 °F 29.8 in ENE 2 mph 4 mph 42% 0 in 206 W/m2
15:54 78.3 °F 53.2 °F 29.8 in NW 2 mph 2 mph 42% 0 in 193 W/m2
15:59 77.9 °F 52.9 °F 29.8 in North 0.9 mph 3 mph 42% 0 in 316 W/m2
16:04 78.4 °F 53.4 °F 29.8 in SW 0.9 mph 3 mph 42% 0 in 809 W/m2
16:09 79.2 °F 53.4 °F 29.8 in WNW 2 mph 3 mph 41% 0 in 719 W/m2
16:14 79.5 °F 53.8 °F 29.8 in ENE 2 mph 7 mph 41% 0 in 613 W/m2
16:19 80.2 °F 53.1 °F 29.8 in NNE 0.9 mph 8 mph 39% 0 in 601 W/m2
16:24 80.2 °F 53.1 °F 29.8 in East 6 mph 7 mph 39% 0 in 589 W/m2
16:29 80.4 °F 54 °F 29.8 in NNW 2.9 mph 6 mph 40% 0 in 626 W/m2
16:34 80.6 °F 53.4 °F 29.7 in ENE 0.9 mph 5 mph 39% 0 in 599 W/m2
16:39 80.8 °F 53.6 °F 29.7 in ENE 2 mph 4 mph 39% 0 in 617 W/m2
16:44 81 °F 52.9 °F 29.7 in WSW 0.9 mph 3 mph 38% 0 in 598 W/m2
16:49 81.7 °F 54.3 °F 29.7 in North 4.9 mph 5 mph 39% 0 in 599 W/m2
16:54 81.9 °F 53.1 °F 29.7 in Calm   4 mph 37% 0 in 613 W/m2
16:59 82 °F 53.2 °F 29.7 in NW 8.1 mph 9 mph 37% 0 in 584 W/m2
17:04 82 °F 53.2 °F 29.7 in SE 2 mph 5 mph 37% 0 in 160 W/m2
17:09 82 °F 52.5 °F 29.7 in East 2 mph 5 mph 36% 0 in 649 W/m2
17:14 82.2 °F 52.5 °F 29.7 in NNE 2 mph 3 mph 36% 0 in 582 W/m2
17:19 82.2 °F 53.4 °F 29.7 in NE 2.9 mph 4 mph 37% 0 in 360 W/m2
17:24 82.2 °F 52.5 °F 29.7 in ENE 0.9 mph 3 mph 36% 0 in 179 W/m2
17:29 82 °F 53.2 °F 29.7 in NNE 0.9 mph 3 mph 37% 0 in 130 W/m2
17:34 81.7 °F 53.6 °F 29.7 in East 2 mph 3 mph 38% 0 in 163 W/m2
17:39 81.1 °F 53.1 °F 29.7 in ENE 4 mph 4 mph 38% 0 in 151 W/m2
17:44 80.8 °F 52.9 °F 29.7 in East 2 mph 4 mph 38% 0 in 130 W/m2
17:49 80.8 °F 53.6 °F 29.7 in ENE 4 mph 5 mph 39% 0 in 121 W/m2
17:54 80.8 °F 52.9 °F 29.7 in ESE 0.9 mph 5 mph 38% 0 in 111 W/m2
17:59 80.8 °F 52.9 °F 29.7 in ENE 0.9 mph 7 mph 38% 0 in 125 W/m2
18:04 81 °F 52.2 °F 29.7 in Calm   2 mph 37% 0 in 158 W/m2
18:09 81 °F 51.4 °F 29.7 in WNW 2.9 mph 8 mph 36% 0 in 88 W/m2
18:14 81.1 °F 52.3 °F 29.7 in NW 2.9 mph 4 mph 37% 0 in 81 W/m2
18:19 81.1 °F 52.3 °F 29.7 in NW 0.9 mph 7 mph 37% 0 in 86 W/m2
18:24 81 °F 50.7 °F 29.7 in Calm   3 mph 35% 0 in 69 W/m2
18:29 81.1 °F 50.9 °F 29.7 in NE 0.9 mph 4 mph 35% 0 in 86 W/m2
18:34 81 °F 52.2 °F 29.7 in NNW 4 mph 6 mph 37% 0 in 100 W/m2
18:39 81 °F 51.4 °F 29.7 in South 0.9 mph 4 mph 36% 0 in 83 W/m2
18:44 81 °F 52.2 °F 29.7 in Calm   6 mph 37% 0 in 93 W/m2
18:49 80.8 °F 51.3 °F 29.7 in NW 0.9 mph 2 mph 36% 0 in 123 W/m2
18:54 81 °F 51.4 °F 29.7 in NW 0.9 mph 3 mph 36% 0 in 98 W/m2
18:59 81 °F 52.2 °F 29.7 in Calm   2 mph 37% 0 in 77 W/m2
19:04 81.1 °F 52.3 °F 29.7 in SSE 0.9 mph 2 mph 37% 0 in 225 W/m2
19:09 81.1 °F 53.1 °F 29.7 in WNW 2 mph 3 mph 38% 0 in 83 W/m2
19:14 81.1 °F 50.9 °F 29.7 in NW 0.9 mph 3 mph 35% 0 in 67 W/m2
19:19 81.3 °F 51.1 °F 29.7 in WNW 6.9 mph 12 mph 35% 0 in 37 W/m2
19:24 81.7 °F 51.4 °F 29.7 in NNE 4.9 mph 5 mph 35% 0 in 63 W/m2
19:29 81.7 °F 51.4 °F 29.7 in WNW 2 mph 4 mph 35% 0 in 58 W/m2
19:34 81.9 °F 51.4 °F 29.7 in NW 4.9 mph 10 mph 35% 0 in 70 W/m2
19:39 81.9 °F 51.4 °F 29.7 in WSW 4 mph 6 mph 35% 0 in 53 W/m2
19:44 81.9 °F 51.4 °F 29.7 in West 2.9 mph 6 mph 35% 0 in 39 W/m2
19:49 81.7 °F 51.4 °F 29.7 in WNW 4.9 mph 5 mph 35% 0 in 25 W/m2
19:54 81.3 °F 51.1 °F 29.7 in West 2 mph 12 mph 35% 0 in 18 W/m2
19:59 81.1 °F 51.6 °F 29.7 in NE 2 mph 3 mph 36% 0 in 21 W/m2
20:04 81 °F 51.4 °F 29.7 in WSW 2.9 mph 7 mph 36% 0 in 14 W/m2
20:09 80.8 °F 52.2 °F 29.7 in WSW 4.9 mph 15 mph 37% 0 in 12 W/m2
20:14 80.6 °F 52 °F 29.7 in ESE 6 mph 6 mph 37% 0 in 11 W/m2
20:19 80.4 °F 51.8 °F 29.7 in WSW 2 mph 15 mph 37% 0 in 11 W/m2
20:24 80.4 °F 52.5 °F 29.7 in NNW 2 mph 3 mph 38% 0 in 5 W/m2
20:29 80.2 °F 52.3 °F 29.7 in NW 2.9 mph 4 mph 38% 0 in 5 W/m2
20:34 80.2 °F 52.3 °F 29.7 in WNW 4.9 mph 6 mph 38% 0 in 0 W/m2
20:40 80.2 °F 52.3 °F 29.7 in WSW 0.9 mph 4 mph 38% 0 in 0 W/m2
20:45 80.1 °F 52.9 °F 29.7 in Calm   2 mph 39% 0 in 0 W/m2
20:50 80.1 °F 52.2 °F 29.7 in NNE 0.9 mph 3 mph 38% 0 in 0 W/m2
20:55 79.9 °F 52.7 °F 29.7 in SW 2 mph 9 mph 39% 0 in 0 W/m2
21:00 79.7 °F 52.5 °F 29.7 in NNW 0.9 mph 8 mph 39% 0 in 0 W/m2
21:05 79.5 °F 52.3 °F 29.7 in WNW 2.9 mph 9 mph 39% 0 in 0 W/m2
21:10 79.3 °F 52.9 °F 29.7 in West 2.9 mph 3 mph 40% 0 in 0 W/m2
21:15 79.3 °F 52.9 °F 29.7 in NW 0.9 mph 4 mph 40% 0 in 0 W/m2
21:20 79.2 °F 53.4 °F 29.7 in NW 0.9 mph 3 mph 41% 0 in 0 W/m2
21:25 79 °F 53.2 °F 29.7 in WNW 4 mph 5 mph 41% 0 in 0 W/m2
21:30 78.6 °F 53.6 °F 29.7 in WSW 0.9 mph 3 mph 42% 0 in 0 W/m2
21:35 78.4 °F 54.1 °F 29.7 in NE 0.9 mph 5 mph 43% 0 in 0 W/m2
21:40 77.9 °F 54.3 °F 29.7 in NNW 2 mph 3 mph 44% 0 in 0 W/m2
21:45 77.7 °F 54.1 °F 29.7 in Calm   5 mph 44% 0 in 0 W/m2
21:50 77.7 °F 54.1 °F 29.7 in West 2 mph 3 mph 44% 0 in 0 W/m2
21:55 77.7 °F 54.1 °F 29.7 in NNE 2 mph 5 mph 44% 0 in 0 W/m2
22:00 77.7 °F 54.1 °F 29.7 in WNW 2 mph 3 mph 44% 0 in 0 W/m2
22:05 77.9 °F 54.9 °F 29.7 in NNW 2 mph 2 mph 45% 0 in 0 W/m2
22:10 77.7 °F 54.7 °F 29.7 in North 0.9 mph 3 mph 45% 0 in 0 W/m2
22:15 77.7 °F 54.7 °F 29.7 in Calm   6 mph 45% 0 in 0 W/m2
22:20 77.5 °F 54.5 °F 29.7 in NW 0.9 mph 2 mph 45% 0 in 0 W/m2
22:25 77.5 °F 54.5 °F 29.7 in NW 2.9 mph 9 mph 45% 0 in 0 W/m2
22:30 77.5 °F 54.5 °F 29.7 in NW 2.9 mph 4 mph 45% 0 in 0 W/m2
22:35 77.5 °F 55 °F 29.7 in WNW 2 mph 2 mph 46% 0 in 0 W/m2
22:40 77.4 °F 55 °F 29.7 in WSW 4 mph 11 mph 46% 0 in 0 W/m2
22:46 77.5 °F 55 °F 29.7 in West 4 mph 7 mph 46% 0 in 0 W/m2
22:51 77.5 °F 55 °F 29.7 in East 2.9 mph 10 mph 46% 0 in 0 W/m2
22:56 77.5 °F 55 °F 29.7 in NW 2.9 mph 8 mph 46% 0 in 0 W/m2
23:01 77.5 °F 55 °F 29.7 in NW 2.9 mph 6 mph 46% 0 in 0 W/m2
23:06 77.4 °F 55.6 °F 29.7 in NW 16.1 mph 16 mph 47% 0 in 0 W/m2
23:11 77.4 °F 56.1 °F 29.7 in NNW 4.9 mph 7 mph 48% 0 in 0 W/m2
23:16 77.2 °F 56.5 °F 29.7 in NNW 4 mph 8 mph 49% 0 in 0 W/m2
23:21 77 °F 57 °F 29.7 in WNW 4.9 mph 10 mph 50% 0 in 0 W/m2
23:26 76.8 °F 57.4 °F 29.7 in NNW 4.9 mph 8 mph 51% 0 in 0 W/m2
23:31 76.5 °F 57.6 °F 29.7 in WNW 2 mph 7 mph 52% 0 in 0 W/m2
23:36 76.3 °F 57.9 °F 29.7 in WSW 2.9 mph 10 mph 53% 0 in 0 W/m2
23:41 76.1 °F 58.3 °F 29.7 in NW 2.9 mph 5 mph 54% 0 in 0 W/m2
23:46 75.9 °F 59.2 °F 29.7 in West 6.9 mph 15 mph 56% 0 in 0 W/m2
23:51 75.7 °F 59 °F 29.7 in WSW 2 mph 7 mph 56% 0 in 0 W/m2
23:56 75.6 °F 59.2 °F 29.7 in WNW 10.1 mph 15 mph 57% 0 in 0 W/m2
Juneau County Weather
Compliments of Weather Underground - 4 mb